createdAt,value
2019-03-08T00:01:03.079Z,13.15
2019-03-08T00:03:31.424Z,12.75
2019-03-08T00:05:59.929Z,13.22
2019-03-08T00:08:28.485Z,15.13
2019-03-08T00:10:56.899Z,14.73
2019-03-08T00:13:25.398Z,15.35
2019-03-08T00:15:53.970Z,15.10
2019-03-08T00:18:22.345Z,14.25
2019-03-08T00:20:50.710Z,14.93
2019-03-08T00:23:20.628Z,16.07
2019-03-08T00:25:49.035Z,15.73
2019-03-08T00:28:17.949Z,15.28
2019-03-08T00:30:46.431Z,15.93
2019-03-08T00:33:14.730Z,16.35
2019-03-08T00:35:43.034Z,14.73
2019-03-08T00:38:11.812Z,14.80
2019-03-08T00:40:40.174Z,13.80
2019-03-08T00:43:08.964Z,13.90
2019-03-08T00:45:37.314Z,13.93
2019-03-08T00:48:05.778Z,14.68
2019-03-08T00:50:34.633Z,15.18
2019-03-08T00:53:03.627Z,14.05
2019-03-08T00:55:32.017Z,13.68
2019-03-08T00:58:02.093Z,13.93
2019-03-08T01:00:30.648Z,13.00
2019-03-08T01:02:59.364Z,13.22
2019-03-08T01:05:27.711Z,13.72
2019-03-08T01:07:56.087Z,14.00
2019-03-08T01:10:24.678Z,12.50
2019-03-08T01:12:53.651Z,13.30
2019-03-08T01:15:23.078Z,13.72
2019-03-08T01:17:51.751Z,13.80
2019-03-08T01:20:20.655Z,15.05
2019-03-08T01:22:49.270Z,13.75
2019-03-08T01:25:17.883Z,13.48
2019-03-08T01:28:21.803Z,13.13
2019-03-08T01:30:50.554Z,12.98
2019-03-08T01:33:19.238Z,13.85
2019-03-08T01:35:47.853Z,11.73
2019-03-08T01:38:16.296Z,12.15
2019-03-08T01:40:44.912Z,11.35
2019-03-08T01:43:13.287Z,11.80
2019-03-08T01:45:41.821Z,12.53
2019-03-08T01:48:10.479Z,10.88
2019-03-08T01:50:38.873Z,10.25
2019-03-08T01:53:07.225Z,9.95
2019-03-08T01:55:35.838Z,9.20
2019-03-08T01:58:04.862Z,9.58
2019-03-08T02:00:33.212Z,9.53
2019-03-08T02:03:01.806Z,7.92
2019-03-08T02:05:30.595Z,8.53
2019-03-08T02:07:58.967Z,8.70
2019-03-08T02:10:27.410Z,9.28
2019-03-08T02:12:55.753Z,8.55
2019-03-08T02:15:24.165Z,7.92
2019-03-08T02:17:53.068Z,7.65
2019-03-08T02:20:22.043Z,6.67
2019-03-08T02:22:50.272Z,7.20
2019-03-08T02:25:18.830Z,7.20
2019-03-08T02:27:47.218Z,7.17
2019-03-08T02:30:16.481Z,6.87
2019-03-08T02:32:45.330Z,7.00
2019-03-08T02:35:14.867Z,6.92
2019-03-08T02:37:43.511Z,5.60
2019-03-08T02:40:43.532Z,6.35
2019-03-08T02:43:15.202Z,5.62
2019-03-08T02:45:44.043Z,6.40
2019-03-08T02:48:12.341Z,6.83
2019-03-08T02:50:41.956Z,6.87
2019-03-08T02:53:10.685Z,8.18
2019-03-08T02:55:39.073Z,6.50
2019-03-08T02:58:07.492Z,7.58
2019-03-08T03:00:45.741Z,6.12
2019-03-08T03:03:15.207Z,6.78
2019-03-08T03:05:43.917Z,6.22
2019-03-08T03:08:12.280Z,7.58
2019-03-08T03:10:40.618Z,8.75
2019-03-08T03:13:09.395Z,9.70
2019-03-08T03:15:37.843Z,7.17
2019-03-08T03:18:06.766Z,6.67
2019-03-08T03:20:35.177Z,7.28
2019-03-08T03:23:03.763Z,9.73
2019-03-08T03:25:32.518Z,7.10
2019-03-08T03:28:01.178Z,6.95
2019-03-08T03:30:30.057Z,6.60
2019-03-08T03:32:58.692Z,6.42
2019-03-08T03:35:27.379Z,7.05
2019-03-08T03:37:55.838Z,6.45
2019-03-08T03:40:24.647Z,6.75
2019-03-08T03:42:53.664Z,6.33
2019-03-08T03:45:22.198Z,6.95
2019-03-08T03:47:51.014Z,6.97
2019-03-08T03:50:19.648Z,6.65
2019-03-08T03:52:48.083Z,7.25
2019-03-08T03:55:16.791Z,6.70
2019-03-08T03:57:45.059Z,7.40
2019-03-08T04:00:15.139Z,6.60
2019-03-08T04:02:43.796Z,6.85
2019-03-08T04:05:12.399Z,6.35
2019-03-08T04:07:41.066Z,6.83
2019-03-08T04:10:11.001Z,6.80
2019-03-08T04:12:39.675Z,6.23
2019-03-08T04:15:10.875Z,6.70
2019-03-08T04:17:39.538Z,6.55
2019-03-08T04:20:11.255Z,6.15
2019-03-08T04:22:39.651Z,6.40
2019-03-08T04:25:08.097Z,5.42
2019-03-08T04:27:36.454Z,5.95
2019-03-08T04:30:05.426Z,5.92
2019-03-08T04:32:33.776Z,6.87
2019-03-08T04:35:02.254Z,6.28
2019-03-08T04:37:30.625Z,6.17
2019-03-08T04:39:59.216Z,5.95
2019-03-08T04:42:27.672Z,6.37
2019-03-08T04:44:56.038Z,5.22
2019-03-08T04:47:24.690Z,5.78
2019-03-08T04:49:53.402Z,5.30
2019-03-08T04:52:21.790Z,5.72
2019-03-08T04:54:50.473Z,5.22
2019-03-08T04:57:18.781Z,4.95
2019-03-08T04:59:49.037Z,5.67
2019-03-08T05:02:17.442Z,5.03
2019-03-08T05:04:45.834Z,4.92
2019-03-08T05:07:14.256Z,5.20
2019-03-08T05:09:42.556Z,4.42
2019-03-08T05:12:10.994Z,4.85
2019-03-08T05:14:39.347Z,5.85
2019-03-08T05:17:07.753Z,5.30
2019-03-08T05:19:35.997Z,5.22
2019-03-08T05:22:04.503Z,5.37
2019-03-08T05:24:33.301Z,5.83
2019-03-08T05:27:01.928Z,5.28
2019-03-08T05:29:30.892Z,5.47
2019-03-08T05:31:59.296Z,4.37
2019-03-08T05:34:27.665Z,4.58
2019-03-08T05:36:56.051Z,5.58
2019-03-08T05:39:24.470Z,5.75
2019-03-08T05:41:53.068Z,4.70
2019-03-08T05:44:21.862Z,4.33
2019-03-08T05:46:50.245Z,5.50
2019-03-08T05:49:18.846Z,5.28
2019-03-08T05:51:47.604Z,4.50
2019-03-08T05:54:16.380Z,4.92
2019-03-08T05:56:44.971Z,4.10
2019-03-08T05:59:13.673Z,3.55
2019-03-08T06:01:42.697Z,4.50
2019-03-08T06:04:11.432Z,3.83
2019-03-08T06:06:39.953Z,4.45
2019-03-08T06:09:08.604Z,3.60
2019-03-08T06:11:37.271Z,3.67
2019-03-08T06:14:05.812Z,3.52
2019-03-08T06:16:34.431Z,3.37
2019-03-08T06:19:03.224Z,3.62
2019-03-08T06:21:32.417Z,3.95
2019-03-08T06:24:01.740Z,2.65
2019-03-08T06:26:30.777Z,2.62
2019-03-08T06:28:59.327Z,3.22
2019-03-08T06:31:27.833Z,3.33
2019-03-08T06:33:56.622Z,3.00
2019-03-08T06:36:25.186Z,2.83
2019-03-08T06:38:54.103Z,2.85
2019-03-08T06:41:22.599Z,2.55
2019-03-08T06:43:51.588Z,2.75
2019-03-08T06:46:20.223Z,2.85
2019-03-08T06:48:48.663Z,2.58
2019-03-08T06:51:17.639Z,2.52
2019-03-08T06:53:46.919Z,3.37
2019-03-08T06:56:15.725Z,2.87
2019-03-08T06:59:02.071Z,2.65
2019-03-08T07:01:34.155Z,2.92
2019-03-08T07:04:03.140Z,2.58
2019-03-08T07:06:31.883Z,2.45
2019-03-08T07:09:00.640Z,2.77
2019-03-08T07:11:30.049Z,2.77
2019-03-08T07:13:58.874Z,2.83
2019-03-08T07:16:27.812Z,2.15
2019-03-08T07:18:56.572Z,2.92
2019-03-08T07:21:30.042Z,2.70
2019-03-08T07:24:33.321Z,2.80
2019-03-08T07:27:24.533Z,2.67
2019-03-08T07:30:11.446Z,2.55
2019-03-08T07:32:59.258Z,2.85
2019-03-08T07:35:35.615Z,3.67
2019-03-08T07:38:23.691Z,2.80
2019-03-08T07:40:58.821Z,2.67
2019-03-08T07:43:38.993Z,2.52
2019-03-08T07:46:24.095Z,3.05
2019-03-08T07:49:12.686Z,2.75
2019-03-08T07:52:09.874Z,3.08
2019-03-08T07:55:01.581Z,2.42
2019-03-08T07:57:55.665Z,2.40
2019-03-08T08:00:38.901Z,2.33
2019-03-08T08:03:16.145Z,2.87
2019-03-08T08:06:05.004Z,2.95
2019-03-08T08:09:11.089Z,2.92
2019-03-08T08:11:57.694Z,2.08
2019-03-08T08:14:44.653Z,2.40
2019-03-08T08:17:44.835Z,2.20
2019-03-08T08:20:38.992Z,2.12
2019-03-08T08:23:12.941Z,2.40
2019-03-08T08:26:19.058Z,2.20
2019-03-08T08:29:16.126Z,2.35
2019-03-08T08:31:58.980Z,2.77
2019-03-08T08:34:43.812Z,2.77
2019-03-08T08:37:30.565Z,2.50
2019-03-08T08:40:12.394Z,2.40
2019-03-08T08:42:49.198Z,2.35
2019-03-08T08:45:55.934Z,2.70
2019-03-08T08:48:46.760Z,2.83
2019-03-08T08:51:38.148Z,2.83
2019-03-08T08:54:26.324Z,2.62
2019-03-08T08:57:15.132Z,2.67
2019-03-08T09:00:05.913Z,2.25
2019-03-08T09:03:04.391Z,2.80
2019-03-08T09:06:01.576Z,2.67
2019-03-08T09:08:40.636Z,2.77
2019-03-08T09:11:20.235Z,2.52
2019-03-08T09:14:05.800Z,2.98
2019-03-08T09:16:57.636Z,2.30
2019-03-08T09:20:01.525Z,2.70
2019-03-08T09:22:34.904Z,2.30
2019-03-08T09:25:10.854Z,2.62
2019-03-08T09:27:45.574Z,2.22
2019-03-08T09:30:21.342Z,3.15
2019-03-08T09:32:59.574Z,2.52
2019-03-08T09:35:38.805Z,2.00
2019-03-08T09:38:18.182Z,2.52
2019-03-08T09:41:21.511Z,2.70
2019-03-08T09:44:15.422Z,1.60
2019-03-08T09:47:03.725Z,2.02
2019-03-08T09:49:54.885Z,2.25
2019-03-08T09:55:36.304Z,2.17
2019-03-08T09:58:28.938Z,2.55
2019-03-08T10:01:26.462Z,1.60
2019-03-08T10:04:26.585Z,1.50
2019-03-08T10:07:20.328Z,1.60
2019-03-08T10:10:08.313Z,1.90
2019-03-08T10:12:56.688Z,2.05
2019-03-08T10:16:00.104Z,2.17
2019-03-08T10:18:57.403Z,2.20
2019-03-08T10:21:44.181Z,1.50
2019-03-08T10:24:30.989Z,1.62
2019-03-08T10:27:17.933Z,1.60
2019-03-08T10:30:04.645Z,2.17
2019-03-08T10:32:43.060Z,2.50
2019-03-08T10:35:30.263Z,2.35
2019-03-08T10:38:22.702Z,1.95
2019-03-08T10:40:59.459Z,1.32
2019-03-08T10:43:51.124Z,1.62
2019-03-08T10:46:42.296Z,1.70
2019-03-08T10:49:28.900Z,1.57
2019-03-08T10:52:20.107Z,1.98
2019-03-08T10:55:02.859Z,2.45
2019-03-08T10:57:44.203Z,3.25
2019-03-08T11:00:27.891Z,3.52
2019-03-08T11:03:14.813Z,2.22
2019-03-08T11:05:55.126Z,2.02
2019-03-08T11:08:41.846Z,1.95
2019-03-08T11:11:32.919Z,2.05
2019-03-08T11:14:10.299Z,1.60
2019-03-08T11:16:49.550Z,1.70
2019-03-08T11:19:30.629Z,2.00
2019-03-08T11:22:17.610Z,1.70
2019-03-08T11:25:07.492Z,2.37
2019-03-08T11:27:47.237Z,1.50
2019-03-08T11:30:35.387Z,1.52
2019-03-08T11:33:15.508Z,2.15
2019-03-08T11:36:09.844Z,1.92
2019-03-08T11:38:50.561Z,1.67
2019-03-08T11:41:29.798Z,2.60
2019-03-08T11:44:04.287Z,2.08
2019-03-08T11:46:55.592Z,1.87
2019-03-08T11:49:34.417Z,2.60
2019-03-08T11:52:21.234Z,2.55
2019-03-08T11:55:07.772Z,2.22
2019-03-08T11:57:54.953Z,1.90
2019-03-08T12:00:53.233Z,2.22
2019-03-08T12:03:38.121Z,2.42
2019-03-08T12:06:24.994Z,2.98
2019-03-08T12:09:13.601Z,2.77
2019-03-08T12:12:07.112Z,2.17
2019-03-08T12:15:10.758Z,2.10
2019-03-08T12:17:59.082Z,3.65
2019-03-08T12:20:36.321Z,1.80
2019-03-08T12:23:22.277Z,2.15
2019-03-08T12:26:19.518Z,2.62
2019-03-08T12:28:58.661Z,3.50
2019-03-08T12:31:45.532Z,2.22
2019-03-08T12:34:32.161Z,2.77
2019-03-08T12:37:23.421Z,2.17
2019-03-08T12:40:01.048Z,1.70
2019-03-08T12:42:47.370Z,1.70
2019-03-08T12:45:39.715Z,1.80
2019-03-08T12:48:34.359Z,2.37
2019-03-08T12:51:22.708Z,1.65
2019-03-08T12:54:09.639Z,1.72
2019-03-08T12:56:54.934Z,1.45
2019-03-08T12:59:45.835Z,3.00
2019-03-08T13:05:29.966Z,2.15
2019-03-08T13:08:19.817Z,2.35
2019-03-08T13:10:48.298Z,2.67
2019-03-08T13:13:16.955Z,2.72
2019-03-08T13:15:45.522Z,1.80
2019-03-08T13:18:14.223Z,2.47
2019-03-08T13:20:42.940Z,2.45
2019-03-08T13:23:12.687Z,2.47
2019-03-08T13:25:41.425Z,2.72
2019-03-08T13:28:10.655Z,2.25
2019-03-08T13:30:39.493Z,2.02
2019-03-08T13:33:08.069Z,2.10
2019-03-08T13:35:36.647Z,2.42
2019-03-08T13:38:06.911Z,2.80
2019-03-08T13:40:35.976Z,2.22
2019-03-08T13:43:04.990Z,2.55
2019-03-08T13:45:33.580Z,2.67
2019-03-08T13:48:02.701Z,2.45
2019-03-08T13:50:31.381Z,2.75
2019-03-08T13:52:59.863Z,3.00
2019-03-08T13:55:28.719Z,2.37
2019-03-08T13:57:57.569Z,2.70
2019-03-08T14:00:26.542Z,3.65
2019-03-08T14:02:55.470Z,2.42
2019-03-08T14:05:24.210Z,4.03
2019-03-08T14:07:52.747Z,2.65
2019-03-08T14:10:21.465Z,3.80
2019-03-08T14:12:50.230Z,2.40
2019-03-08T14:15:19.019Z,2.05
2019-03-08T14:17:47.758Z,3.15
2019-03-08T14:20:17.764Z,3.10
2019-03-08T14:22:46.461Z,2.67
2019-03-08T14:25:15.254Z,2.08
2019-03-08T14:27:44.199Z,3.02
2019-03-08T14:30:15.311Z,2.37
2019-03-08T14:32:44.054Z,2.17
2019-03-08T14:35:13.123Z,3.83
2019-03-08T14:37:42.066Z,3.35
2019-03-08T14:40:43.355Z,2.72
2019-03-08T14:43:23.593Z,2.65
2019-03-08T14:45:57.655Z,2.65
2019-03-08T14:48:26.750Z,1.92
2019-03-08T14:50:55.280Z,2.33
2019-03-08T14:53:23.987Z,2.50
2019-03-08T14:55:55.082Z,2.20
2019-03-08T15:00:51.871Z,2.70
2019-03-08T15:03:23.698Z,2.55
2019-03-08T15:05:51.135Z,2.98
2019-03-08T15:08:19.689Z,3.08
2019-03-08T15:10:51.128Z,3.02
2019-03-08T15:13:20.188Z,3.00
2019-03-08T15:15:49.301Z,3.40
2019-03-08T15:18:17.982Z,3.17
2019-03-08T15:20:46.862Z,3.02
2019-03-08T15:23:17.407Z,4.03
2019-03-08T15:25:49.092Z,3.80
2019-03-08T15:30:45.945Z,3.10
2019-03-08T15:33:14.647Z,2.47
2019-03-08T15:35:43.624Z,2.33
2019-03-08T15:38:12.386Z,2.80
2019-03-08T15:40:40.977Z,2.37
2019-03-08T15:43:13.232Z,2.17
2019-03-08T15:45:44.371Z,3.35
2019-03-08T15:48:14.610Z,3.55
2019-03-08T15:50:46.729Z,3.07
2019-03-08T15:53:13.875Z,2.12
2019-03-08T15:55:52.293Z,2.72
2019-03-08T15:58:13.472Z,3.00
2019-03-08T16:00:42.463Z,3.25
2019-03-08T16:03:11.174Z,3.12
2019-03-08T16:05:39.793Z,4.15
2019-03-08T16:08:08.757Z,3.12
2019-03-08T16:10:37.274Z,3.25
2019-03-08T16:13:06.326Z,3.77
2019-03-08T16:15:36.041Z,4.47
2019-03-08T16:18:04.879Z,4.17
2019-03-08T16:20:37.396Z,3.45
2019-03-08T16:25:35.095Z,3.30
2019-03-08T16:28:03.472Z,3.27
2019-03-08T16:30:34.562Z,4.03
2019-03-08T16:33:18.970Z,4.28
2019-03-08T16:36:02.965Z,3.35
2019-03-08T16:38:46.160Z,3.87
2019-03-08T16:41:43.115Z,3.83
2019-03-08T16:44:30.998Z,4.28
2019-03-08T16:47:24.934Z,4.75
2019-03-08T16:50:10.608Z,3.10
2019-03-08T16:52:46.419Z,4.28
2019-03-08T16:55:31.288Z,3.58
2019-03-08T16:58:29.079Z,4.50
2019-03-08T17:01:26.390Z,5.12
2019-03-08T17:04:17.994Z,4.17
2019-03-08T17:07:05.093Z,4.08
2019-03-08T17:09:59.175Z,4.62
2019-03-08T17:12:59.469Z,3.83
2019-03-08T17:15:43.323Z,4.30
2019-03-08T17:18:26.959Z,3.70
2019-03-08T17:21:30.122Z,4.22
2019-03-08T17:24:06.406Z,4.72
2019-03-08T17:26:45.916Z,5.28
2019-03-08T17:29:35.701Z,4.00
2019-03-08T17:32:29.776Z,4.53
2019-03-08T17:35:17.647Z,4.28
2019-03-08T17:37:51.220Z,5.03
2019-03-08T17:40:36.606Z,4.55
2019-03-08T17:43:24.528Z,5.22
2019-03-08T17:46:15.464Z,5.08
2019-03-08T17:51:47.771Z,4.15
2019-03-08T17:57:14.896Z,3.70
2019-03-08T18:00:01.483Z,4.15
2019-03-08T18:02:35.676Z,3.80
2019-03-08T18:05:15.557Z,4.12
2019-03-08T18:08:09.182Z,4.25
2019-03-08T18:10:59.714Z,4.37
2019-03-08T18:13:49.432Z,4.55
2019-03-08T18:16:30.997Z,4.25
2019-03-08T18:19:08.191Z,5.30
2019-03-08T18:22:08.362Z,5.20
2019-03-08T18:24:54.507Z,4.77
2019-03-08T18:27:54.995Z,4.45
2019-03-08T18:30:46.170Z,4.65
2019-03-08T18:33:29.174Z,5.22
2019-03-08T18:36:22.652Z,5.20
2019-03-08T18:39:06.696Z,4.67
2019-03-08T18:41:54.924Z,5.65
2019-03-08T18:44:44.871Z,5.70
2019-03-08T18:47:41.606Z,6.00
2019-03-08T18:50:38.126Z,5.75
2019-03-08T18:53:29.024Z,6.90
2019-03-08T18:59:10.678Z,6.85
2019-03-08T19:01:55.541Z,7.90
2019-03-08T19:05:01.588Z,7.08
2019-03-08T19:07:55.445Z,7.70
2019-03-08T19:10:46.350Z,6.80
2019-03-08T19:16:21.748Z,6.75
2019-03-08T19:18:58.905Z,7.72
2019-03-08T19:21:55.771Z,6.78
2019-03-08T19:24:39.498Z,5.62
2019-03-08T19:27:27.337Z,7.12
2019-03-08T19:30:15.275Z,6.95
2019-03-08T19:33:06.323Z,6.12
2019-03-08T19:36:00.780Z,6.80
2019-03-08T19:38:52.881Z,6.92
2019-03-08T19:41:46.977Z,6.80
2019-03-08T19:44:23.001Z,6.30
2019-03-08T19:47:25.780Z,9.68
2019-03-08T19:50:12.358Z,6.40
2019-03-08T19:53:03.417Z,6.10
2019-03-08T19:55:56.935Z,7.17
2019-03-08T19:58:39.435Z,6.67
2019-03-08T20:01:34.807Z,6.62
2019-03-08T20:04:12.008Z,7.78
2019-03-08T20:07:02.678Z,6.00
2019-03-08T20:09:50.945Z,6.55
2019-03-08T20:12:33.696Z,6.22
2019-03-08T20:15:20.712Z,6.60
2019-03-08T20:18:15.007Z,6.28
2019-03-08T20:21:04.643Z,7.92
2019-03-08T20:24:02.042Z,7.22
2019-03-08T20:26:42.849Z,7.25
2019-03-08T20:32:14.322Z,9.10
2019-03-08T20:34:59.933Z,8.33
2019-03-08T20:37:59.909Z,8.05
2019-03-08T20:40:37.550Z,7.35
2019-03-08T20:43:17.122Z,7.25
2019-03-08T20:46:03.176Z,7.83
2019-03-08T20:48:31.939Z,7.30
2019-03-08T20:51:00.401Z,7.75
2019-03-08T20:53:28.959Z,7.85
2019-03-08T20:55:57.645Z,7.12
2019-03-08T20:58:25.997Z,7.85
2019-03-08T21:00:54.411Z,7.75
2019-03-08T21:03:22.811Z,8.28
2019-03-08T21:05:51.294Z,10.75
2019-03-08T21:08:19.874Z,9.03
2019-03-08T21:10:49.389Z,9.55
2019-03-08T21:13:18.145Z,8.33
2019-03-08T21:15:46.818Z,9.30
2019-03-08T21:18:15.588Z,9.40
2019-03-08T21:20:44.232Z,9.68
2019-03-08T21:23:12.596Z,8.93
2019-03-08T21:25:41.037Z,9.35
2019-03-08T21:28:09.697Z,11.00
2019-03-08T21:30:38.327Z,8.40
2019-03-08T21:33:06.757Z,9.43
2019-03-08T21:35:35.386Z,8.48
2019-03-08T21:38:03.843Z,10.28
2019-03-08T21:40:32.492Z,11.10
2019-03-08T21:43:01.691Z,9.00
2019-03-08T21:45:30.120Z,10.55
2019-03-08T21:47:59.107Z,9.13
2019-03-08T21:50:27.554Z,9.55
2019-03-08T21:52:56.223Z,8.88
2019-03-08T21:55:24.698Z,10.00
2019-03-08T21:57:53.274Z,8.15
2019-03-08T22:00:22.470Z,9.33
2019-03-08T22:02:51.219Z,11.18
2019-03-08T22:05:23.167Z,9.78
2019-03-08T22:07:51.834Z,8.38
2019-03-08T22:10:29.657Z,8.18
2019-03-08T22:12:58.319Z,8.63
2019-03-08T22:15:26.632Z,9.70
2019-03-08T22:17:55.036Z,9.50
2019-03-08T22:20:23.924Z,8.83
2019-03-08T22:22:52.404Z,8.85
2019-03-08T22:25:22.957Z,8.88
2019-03-08T22:27:51.686Z,10.40
2019-03-08T22:30:20.369Z,9.63
2019-03-08T22:32:49.359Z,10.88
2019-03-08T22:35:18.497Z,9.40
2019-03-08T22:37:46.693Z,9.70
2019-03-08T22:40:15.410Z,10.43
2019-03-08T22:42:43.840Z,8.98
2019-03-08T22:45:12.834Z,10.63
2019-03-08T22:47:41.509Z,10.70
2019-03-08T22:50:10.429Z,9.30
2019-03-08T22:52:39.474Z,8.18
2019-03-08T22:55:09.224Z,10.50
2019-03-08T22:57:39.324Z,9.15
2019-03-08T23:00:26.866Z,10.18
2019-03-08T23:02:55.416Z,10.48
2019-03-08T23:05:24.594Z,10.90
2019-03-08T23:07:53.095Z,11.00
2019-03-08T23:10:21.469Z,9.00
2019-03-08T23:12:50.183Z,9.03
2019-03-08T23:15:18.796Z,9.58
2019-03-08T23:17:47.245Z,9.88
2019-03-08T23:20:15.818Z,8.48
2019-03-08T23:22:44.618Z,8.83
2019-03-08T23:25:13.338Z,9.20
2019-03-08T23:27:49.027Z,10.23
2019-03-08T23:30:29.073Z,10.23
2019-03-08T23:32:57.760Z,9.73
2019-03-08T23:35:26.149Z,9.90
2019-03-08T23:37:54.837Z,10.13
2019-03-08T23:40:23.288Z,8.88
2019-03-08T23:42:51.607Z,8.43
2019-03-08T23:45:19.859Z,9.83
2019-03-08T23:47:48.451Z,9.28
2019-03-08T23:50:16.734Z,8.78
2019-03-08T23:52:45.131Z,8.30
2019-03-08T23:55:13.754Z,8.38
2019-03-08T23:57:42.222Z,7.62
